createdAt,value
2018-01-03T00:12:09.274Z,77.60
2018-01-03T00:14:36.870Z,77.80
2018-01-03T00:20:26.303Z,78.50
2018-01-03T00:22:58.158Z,78.90
2018-01-03T00:25:26.646Z,79.00
2018-01-03T00:27:54.557Z,79.10
2018-01-03T00:30:23.172Z,79.00
2018-01-03T00:32:56.054Z,79.20
2018-01-03T00:35:24.051Z,79.40
2018-01-03T00:37:51.576Z,79.50
2018-01-03T00:40:19.264Z,79.50
2018-01-03T00:42:47.726Z,80.10
2018-01-03T00:47:50.712Z,80.30
2018-01-03T00:50:18.653Z,80.10
2018-01-03T00:52:47.271Z,80.60
2018-01-03T00:55:16.692Z,80.60
2018-01-03T00:57:46.222Z,80.80
2018-01-03T01:00:15.130Z,81.10
2018-01-03T01:02:42.680Z,81.00
2018-01-03T01:05:11.106Z,81.10
2018-01-03T01:07:38.723Z,81.10
2018-01-03T01:10:06.307Z,81.30
2018-01-03T01:12:33.990Z,81.30
2018-01-03T01:15:01.623Z,81.60
2018-01-03T01:17:30.223Z,81.70
2018-01-03T01:19:57.773Z,81.90
2018-01-03T01:22:25.487Z,82.20
2018-01-03T01:24:53.002Z,82.40
2018-01-03T01:27:21.292Z,82.40
2018-01-03T01:29:48.992Z,82.80
2018-01-03T01:32:18.382Z,83.00
2018-01-03T01:34:46.108Z,83.00
2018-01-03T01:37:14.423Z,83.30
2018-01-03T01:39:41.933Z,83.20
2018-01-03T01:42:09.423Z,83.40
2018-01-03T01:44:36.937Z,83.60
2018-01-03T01:47:06.333Z,84.20
2018-01-03T01:49:33.866Z,84.20
2018-01-03T01:52:02.876Z,84.40
2018-01-03T01:54:30.348Z,84.40
2018-01-03T01:56:57.835Z,84.50
2018-01-03T01:59:26.093Z,84.60
2018-01-03T02:01:54.343Z,84.80
2018-01-03T02:04:21.820Z,84.80
2018-01-03T02:06:50.086Z,85.20
2018-01-03T02:09:17.563Z,84.80
2018-01-03T02:11:45.046Z,85.00
2018-01-03T02:14:12.511Z,85.20
2018-01-03T02:16:40.016Z,85.20
2018-01-03T02:19:07.479Z,85.30
2018-01-03T02:21:34.962Z,85.40
2018-01-03T02:24:02.422Z,85.50
2018-01-03T02:26:29.907Z,85.50
2018-01-03T02:28:57.389Z,85.60
2018-01-03T02:31:24.837Z,85.90
2018-01-03T02:33:52.331Z,86.00
2018-01-03T02:36:20.569Z,86.20
2018-01-03T02:38:49.549Z,86.20
2018-01-03T02:41:17.014Z,85.90
2018-01-03T02:43:44.623Z,86.00
2018-01-03T02:46:12.138Z,86.20
2018-01-03T02:48:39.601Z,86.30
2018-01-03T02:51:07.055Z,86.40
2018-01-03T02:53:34.532Z,86.60
2018-01-03T02:56:02.004Z,86.50
2018-01-03T02:58:29.477Z,86.60
2018-01-03T03:00:56.934Z,86.60
2018-01-03T03:03:24.406Z,86.60
2018-01-03T03:05:52.651Z,86.90
2018-01-03T03:08:20.145Z,86.20
2018-01-03T03:10:47.612Z,86.70
2018-01-03T03:13:15.845Z,86.20
2018-01-03T03:15:43.331Z,86.10
2018-01-03T03:18:10.817Z,85.90
2018-01-03T03:20:39.069Z,84.20
2018-01-03T03:23:06.536Z,85.20
2018-01-03T03:25:34.026Z,83.90
2018-01-03T03:28:02.266Z,83.10
2018-01-03T03:30:29.740Z,83.00
2018-01-03T03:32:57.207Z,82.90
2018-01-03T03:35:24.738Z,83.00
2018-01-03T03:37:52.255Z,82.90
2018-01-03T03:40:20.570Z,83.10
2018-01-03T03:42:48.050Z,83.10
2018-01-03T03:45:15.780Z,83.10
2018-01-03T03:47:43.331Z,83.20
2018-01-03T03:50:12.400Z,83.10
2018-01-03T03:52:39.951Z,83.10
2018-01-03T03:55:07.474Z,83.10
2018-01-03T03:57:34.991Z,83.40
2018-01-03T04:00:02.496Z,83.50
2018-01-03T04:02:29.983Z,83.60
2018-01-03T04:04:57.458Z,83.80
2018-01-03T04:07:24.930Z,83.90
2018-01-03T04:09:52.436Z,83.90
2018-01-03T04:12:20.979Z,84.00
2018-01-03T04:14:48.459Z,84.00
2018-01-03T04:17:15.917Z,84.70
2018-01-03T04:19:43.407Z,84.10
2018-01-03T04:22:11.662Z,84.30
2018-01-03T04:24:39.135Z,84.30
2018-01-03T04:27:06.602Z,84.30
2018-01-03T04:29:34.094Z,84.50
2018-01-03T04:32:05.094Z,84.30
2018-01-03T04:34:32.567Z,84.30
2018-01-03T04:37:00.034Z,84.30
2018-01-03T04:39:27.506Z,84.00
2018-01-03T04:41:55.746Z,84.00
2018-01-03T04:44:23.273Z,84.00
2018-01-03T04:46:50.750Z,84.10
2018-01-03T04:49:18.226Z,84.10
2018-01-03T04:51:45.696Z,84.20
2018-01-03T04:54:13.180Z,84.40
2018-01-03T04:56:40.664Z,84.40
2018-01-03T04:59:08.140Z,84.50
2018-01-03T05:01:35.620Z,84.40
2018-01-03T05:04:03.098Z,84.80
2018-01-03T05:06:30.581Z,84.80
2018-01-03T05:08:58.048Z,84.60
2018-01-03T05:11:25.533Z,84.50
2018-01-03T05:13:53.001Z,84.80
2018-01-03T05:16:20.476Z,84.30
2018-01-03T05:18:48.708Z,84.30
2018-01-03T05:21:16.177Z,84.30
2018-01-03T05:23:43.642Z,84.30
2018-01-03T05:26:11.130Z,83.90
2018-01-03T05:28:39.376Z,83.90
2018-01-03T05:31:06.866Z,83.20
2018-01-03T05:33:34.329Z,82.90
2018-01-03T05:36:01.805Z,82.80
2018-01-03T05:38:30.030Z,82.60
2018-01-03T05:40:57.533Z,82.50
2018-01-03T05:43:25.011Z,82.60
2018-01-03T05:45:53.263Z,84.20
2018-01-03T05:48:20.732Z,83.50
2018-01-03T05:50:48.202Z,83.90
2018-01-03T05:53:15.662Z,84.30
2018-01-03T05:55:43.162Z,84.70
2018-01-03T05:58:10.617Z,84.60
2018-01-03T06:00:38.100Z,84.80
2018-01-03T06:03:05.561Z,84.70
2018-01-03T06:05:33.051Z,84.60
2018-01-03T06:08:00.516Z,84.70
2018-01-03T06:10:27.991Z,84.70
2018-01-03T06:12:55.489Z,84.60
2018-01-03T06:15:23.726Z,84.10
2018-01-03T06:17:51.215Z,84.10
2018-01-03T06:20:18.689Z,83.70
2018-01-03T06:22:46.947Z,83.30
2018-01-03T06:25:14.459Z,83.30
2018-01-03T06:27:41.914Z,83.10
2018-01-03T06:30:09.377Z,83.00
2018-01-03T06:32:36.866Z,82.90
2018-01-03T06:35:04.326Z,82.90
2018-01-03T06:37:31.827Z,83.00
2018-01-03T06:39:59.288Z,82.80
2018-01-03T06:42:26.776Z,82.70
2018-01-03T06:44:55.017Z,82.20
2018-01-03T06:47:22.499Z,82.10
2018-01-03T06:49:49.971Z,81.40
2018-01-03T06:52:20.134Z,81.50
2018-01-03T06:54:47.634Z,81.50
2018-01-03T06:57:15.126Z,79.30
2018-01-03T06:59:43.353Z,77.30
2018-01-03T07:02:10.834Z,77.20
2018-01-03T07:04:38.295Z,75.70
2018-01-03T07:07:06.585Z,75.00
2018-01-03T07:09:34.055Z,74.70
2018-01-03T07:12:01.529Z,75.40
2018-01-03T07:14:29.770Z,78.10
2018-01-03T07:16:57.241Z,78.10
2018-01-03T07:19:24.703Z,79.30
2018-01-03T07:21:52.180Z,81.60
2018-01-03T07:24:19.651Z,82.10
2018-01-03T07:26:47.118Z,83.30
2018-01-03T07:29:14.619Z,91.00
2018-01-03T07:31:42.118Z,88.30
2018-01-03T07:34:09.597Z,86.10
2018-01-03T07:36:37.095Z,85.80
2018-01-03T07:39:05.415Z,82.60
2018-01-03T07:41:32.900Z,82.60
2018-01-03T07:44:00.395Z,83.60
2018-01-03T07:46:28.647Z,82.70
2018-01-03T07:48:56.130Z,82.70
2018-01-03T07:51:25.702Z,82.30
2018-01-03T07:53:53.185Z,82.20
2018-01-03T07:56:20.673Z,83.20
2018-01-03T07:58:48.943Z,82.90
2018-01-03T08:01:16.431Z,83.90
2018-01-03T08:03:43.933Z,84.30
2018-01-03T08:06:11.398Z,84.50
2018-01-03T08:08:38.901Z,85.50
2018-01-03T08:11:07.134Z,86.60
2018-01-03T08:13:36.540Z,86.50
2018-01-03T08:16:04.002Z,86.10
2018-01-03T08:18:31.486Z,86.80
2018-01-03T08:20:58.946Z,86.80
2018-01-03T08:23:26.429Z,86.90
2018-01-03T08:25:53.908Z,87.20
2018-01-03T08:28:21.387Z,87.70
2018-01-03T08:30:48.847Z,87.40
2018-01-03T08:33:16.367Z,87.50
2018-01-03T08:35:43.855Z,87.60
2018-01-03T08:38:12.206Z,84.70
2018-01-03T08:40:39.675Z,84.60
2018-01-03T08:43:07.147Z,83.80
2018-01-03T08:45:34.622Z,84.30
2018-01-03T08:48:02.845Z,85.10
2018-01-03T08:50:30.323Z,85.10
2018-01-03T08:52:57.785Z,82.20
2018-01-03T08:55:28.388Z,81.70
2018-01-03T08:57:55.887Z,82.60
2018-01-03T09:00:26.368Z,82.30
2018-01-03T09:02:53.830Z,79.20
2018-01-03T09:05:24.896Z,78.90
2018-01-03T09:07:52.599Z,78.80
2018-01-03T09:10:20.143Z,76.50
2018-01-03T09:12:47.619Z,77.40
2018-01-03T09:41:20.129Z,82.70
2018-01-03T09:43:53.525Z,82.10
2018-01-03T09:52:14.390Z,80.30
2018-01-03T09:54:51.570Z,81.70
2018-01-03T09:57:29.028Z,82.80
2018-01-03T10:00:03.925Z,79.50
2018-01-03T10:02:37.451Z,77.60
2018-01-03T10:05:05.210Z,76.10
2018-01-03T10:07:33.983Z,77.30
2018-01-03T10:10:03.317Z,75.30
2018-01-03T10:12:30.949Z,76.00
2018-01-03T10:15:02.533Z,74.70
2018-01-03T10:17:30.875Z,73.90
2018-01-03T10:19:58.534Z,73.70
2018-01-03T10:22:26.115Z,71.10
2018-01-03T10:24:53.787Z,72.30
2018-01-03T10:27:24.207Z,71.70
2018-01-03T10:29:52.003Z,70.20
2018-01-03T11:21:26.072Z,66.30
2018-01-03T11:23:53.550Z,65.80
2018-01-03T11:26:21.047Z,66.80
2018-01-03T11:28:48.519Z,64.50
2018-01-03T11:31:16.012Z,63.90
2018-01-03T11:33:45.717Z,63.00
2018-01-03T11:36:15.706Z,63.10
2018-01-03T11:38:43.182Z,63.10
2018-01-03T11:41:10.674Z,63.50
2018-01-03T11:43:38.133Z,62.20
2018-01-03T11:46:06.386Z,62.30
2018-01-03T11:51:27.203Z,62.70
2018-01-03T11:53:57.454Z,62.70
2018-01-03T11:56:25.319Z,62.60
2018-01-03T11:58:55.073Z,64.20
2018-01-03T12:01:22.568Z,64.00
2018-01-03T12:03:50.035Z,65.40
2018-01-03T12:06:17.555Z,65.10
2018-01-03T12:08:45.116Z,65.40
2018-01-03T12:11:14.250Z,63.20
2018-01-03T12:13:41.730Z,62.80
2018-01-03T12:16:09.193Z,62.30
2018-01-03T12:18:36.688Z,63.90
2018-01-03T12:21:04.165Z,64.00
2018-01-03T12:23:31.663Z,63.10
2018-01-03T12:25:59.371Z,62.60
2018-01-03T12:28:27.616Z,59.70
2018-01-03T12:30:55.083Z,59.60
2018-01-03T12:33:22.555Z,59.70
2018-01-03T12:35:50.047Z,59.50
2018-01-03T12:38:18.285Z,59.70
2018-01-03T12:40:45.777Z,59.70
2018-01-03T12:43:13.223Z,59.40
2018-01-03T12:45:40.684Z,59.30
2018-01-03T12:48:08.201Z,58.30
2018-01-03T12:50:35.682Z,59.70
2018-01-03T12:53:03.165Z,59.00
2018-01-03T12:58:22.430Z,56.80
2018-01-03T13:00:49.924Z,59.50
2018-01-03T13:03:17.408Z,57.90
2018-01-03T13:05:45.666Z,58.50
2018-01-03T13:08:13.147Z,58.40
2018-01-03T13:10:41.878Z,57.50
2018-01-03T13:13:09.376Z,57.50
2018-01-03T13:15:36.851Z,57.30
2018-01-03T13:18:05.163Z,58.30
2018-01-03T13:20:32.637Z,57.60
2018-01-03T13:23:00.117Z,58.40
2018-01-03T13:25:27.607Z,58.30
2018-01-03T13:27:55.837Z,57.80
2018-01-03T13:30:23.342Z,57.90
2018-01-03T13:32:50.821Z,56.90
2018-01-03T13:43:57.824Z,56.00
2018-01-03T13:46:25.300Z,56.50
2018-01-03T13:48:52.793Z,54.60
2018-01-03T13:51:20.267Z,55.50
2018-01-03T13:53:49.104Z,53.50
2018-01-03T13:56:16.591Z,53.60
2018-01-03T13:58:44.084Z,54.30
2018-01-03T14:01:11.565Z,55.50
2018-01-03T14:03:39.027Z,55.10
2018-01-03T14:06:06.506Z,55.60
2018-01-03T14:08:33.968Z,56.40
2018-01-03T14:11:01.467Z,56.40
2018-01-03T14:13:29.697Z,57.20
2018-01-03T14:15:57.192Z,57.20
2018-01-03T14:18:24.648Z,57.70
2018-01-03T14:20:52.136Z,58.30
2018-01-03T14:23:20.403Z,61.30
2018-01-03T14:25:47.903Z,61.30
2018-01-03T14:28:17.147Z,62.10
2018-01-03T14:30:44.612Z,61.80
2018-01-03T14:33:12.160Z,62.10
2018-01-03T14:35:42.143Z,61.90
2018-01-03T14:38:09.694Z,61.00
2018-01-03T14:40:38.076Z,61.60
2018-01-03T14:43:06.339Z,62.00
2018-01-03T14:45:33.935Z,61.90
2018-01-03T14:48:02.457Z,60.90
2018-01-03T14:50:30.306Z,60.70
2018-01-03T14:52:57.807Z,61.10
2018-01-03T14:55:25.289Z,60.90
2018-01-03T14:57:52.800Z,60.70
2018-01-03T15:00:20.286Z,60.90
2018-01-03T15:02:47.761Z,60.00
2018-01-03T15:05:15.260Z,61.00
2018-01-03T15:07:43.960Z,60.00
2018-01-03T15:10:12.261Z,60.60
2018-01-03T15:12:39.707Z,60.70
2018-01-03T15:15:07.286Z,60.20
2018-01-03T15:17:34.766Z,60.20
2018-01-03T15:20:02.279Z,59.70
2018-01-03T15:22:29.826Z,60.20
2018-01-03T15:24:57.360Z,60.20
2018-01-03T15:27:24.844Z,60.20
2018-01-03T15:29:52.325Z,59.70
2018-01-03T15:32:19.871Z,59.40
2018-01-03T15:34:47.392Z,59.30
2018-01-03T15:37:16.576Z,59.20
2018-01-03T15:39:44.825Z,59.10
2018-01-03T15:42:12.290Z,59.10
2018-01-03T15:44:39.754Z,57.80
2018-01-03T15:47:07.253Z,58.50
2018-01-03T15:49:34.737Z,58.50
2018-01-03T15:52:02.235Z,59.00
2018-01-03T15:54:29.748Z,59.50
2018-01-03T15:56:57.241Z,59.20
2018-01-03T15:59:24.794Z,59.70
2018-01-03T16:01:52.315Z,59.20
2018-01-03T16:04:20.554Z,60.00
2018-01-03T16:06:48.073Z,59.40
2018-01-03T16:09:15.559Z,59.40
2018-01-03T16:11:43.108Z,59.30
2018-01-03T16:14:10.600Z,59.30
2018-01-03T16:16:38.077Z,59.30
2018-01-03T16:19:05.549Z,60.20
2018-01-03T16:21:33.094Z,60.60
2018-01-03T16:24:00.572Z,59.80
2018-01-03T16:26:28.052Z,60.20
2018-01-03T16:28:55.557Z,60.20
2018-01-03T16:31:23.049Z,60.90
2018-01-03T16:33:50.536Z,60.60
2018-01-03T16:36:18.089Z,61.10
2018-01-03T16:38:45.582Z,61.00
2018-01-03T16:41:14.113Z,61.60
2018-01-03T16:43:41.601Z,61.50
2018-01-03T16:46:09.144Z,61.40
2018-01-03T16:48:36.664Z,61.70
2018-01-03T16:51:04.940Z,62.40
2018-01-03T16:53:33.362Z,62.10
2018-01-03T16:56:01.280Z,62.10
2018-01-03T16:58:35.447Z,62.40
2018-01-03T17:01:02.909Z,62.30
2018-01-03T17:03:30.391Z,63.10
2018-01-03T17:05:57.876Z,63.20
2018-01-03T17:08:27.224Z,63.10
2018-01-03T17:10:54.827Z,63.00
2018-01-03T17:13:22.354Z,63.50
2018-01-03T17:15:49.836Z,63.10
2018-01-03T17:18:17.311Z,63.20
2018-01-03T17:20:44.846Z,63.90
2018-01-03T17:23:12.294Z,63.60
2018-01-03T17:25:40.813Z,63.40
2018-01-03T17:28:08.287Z,63.40
2018-01-03T17:30:40.843Z,63.40
2018-01-03T17:33:08.387Z,64.00
2018-01-03T17:35:37.802Z,63.70
2018-01-03T17:38:05.713Z,63.70
2018-01-03T17:40:33.247Z,63.30
2018-01-03T17:43:00.786Z,63.50
2018-01-03T17:45:29.113Z,63.10
2018-01-03T17:47:56.678Z,63.10
2018-01-03T17:50:25.675Z,63.20
2018-01-03T17:52:53.174Z,63.40
2018-01-03T17:55:21.730Z,63.50
2018-01-03T17:57:49.257Z,63.50
2018-01-03T18:00:17.960Z,63.20
2018-01-03T18:02:46.287Z,63.20
2018-01-03T18:05:14.290Z,63.30
2018-01-03T18:07:42.790Z,63.20
2018-01-03T18:10:11.247Z,63.50
2018-01-03T18:12:38.781Z,63.50
2018-01-03T18:15:07.362Z,63.40
2018-01-03T18:17:34.947Z,63.60
2018-01-03T18:20:03.519Z,64.20
2018-01-03T18:22:31.208Z,64.20
2018-01-03T18:24:58.776Z,64.50
2018-01-03T18:27:27.414Z,64.10
2018-01-03T18:29:54.925Z,64.00
2018-01-03T18:32:22.428Z,64.40
2018-01-03T18:34:50.191Z,64.80
2018-01-03T18:37:17.798Z,65.20
2018-01-03T18:39:45.372Z,65.40
2018-01-03T18:42:13.140Z,66.10
2018-01-03T18:44:41.997Z,65.50
2018-01-03T18:47:10.657Z,66.40
2018-01-03T18:49:38.345Z,66.30
2018-01-03T18:52:06.125Z,66.60
2018-01-03T18:54:35.538Z,66.50
2018-01-03T18:57:05.138Z,66.70
2018-01-03T18:59:33.400Z,66.70
2018-01-03T19:02:01.190Z,66.90
2018-01-03T19:04:29.909Z,67.40
2018-01-03T19:06:57.633Z,67.10
2018-01-03T19:09:25.388Z,67.30
2018-01-03T19:11:53.235Z,67.00
2018-01-03T19:14:20.790Z,66.40
2018-01-03T19:16:48.650Z,66.60
2018-01-03T19:19:16.426Z,66.60
2018-01-03T19:21:45.120Z,65.60
2018-01-03T19:24:13.142Z,65.60
2018-01-03T19:26:42.176Z,65.60
2018-01-03T19:29:11.307Z,65.20
2018-01-03T19:31:39.030Z,64.70
2018-01-03T19:34:06.805Z,64.40
2018-01-03T19:36:34.645Z,64.40
2018-01-03T19:39:02.462Z,64.60
2018-01-03T19:41:30.167Z,65.00
2018-01-03T19:43:58.655Z,64.60
2018-01-03T19:46:27.941Z,64.80
2018-01-03T19:48:56.858Z,65.00
2018-01-03T19:51:24.642Z,65.00
2018-01-03T19:53:53.837Z,65.50
2018-01-03T19:56:23.502Z,65.50
2018-01-03T19:58:51.328Z,65.50
2018-01-03T20:01:19.732Z,65.50
2018-01-03T20:03:47.481Z,65.50
2018-01-03T20:06:15.916Z,65.40
2018-01-03T20:08:43.755Z,65.40
2018-01-03T20:11:13.117Z,65.50
2018-01-03T20:13:41.633Z,65.50
2018-01-03T20:16:09.192Z,65.20
2018-01-03T20:18:36.885Z,65.10
2018-01-03T20:21:05.228Z,65.00
2018-01-03T20:23:33.123Z,64.90
2018-01-03T20:26:01.870Z,65.90
2018-01-03T20:28:29.643Z,65.40
2018-01-03T20:30:57.972Z,65.70
2018-01-03T20:33:26.273Z,66.20
2018-01-03T20:35:54.100Z,66.30
2018-01-03T20:38:22.279Z,66.20
2018-01-03T20:41:11.784Z,66.90
2018-01-03T20:43:39.311Z,66.80
2018-01-03T20:46:06.912Z,66.60
2018-01-03T20:48:34.618Z,67.10
2018-01-03T20:51:02.416Z,67.20
2018-01-03T20:53:30.125Z,66.90
2018-01-03T20:55:58.643Z,66.60
2018-01-03T20:58:26.158Z,66.90
2018-01-03T21:00:54.056Z,66.90
2018-01-03T21:03:23.568Z,66.90
2018-01-03T21:05:51.143Z,66.80
2018-01-03T21:08:19.722Z,66.90
2018-01-03T21:10:48.048Z,67.20
2018-01-03T21:13:16.426Z,67.10
2018-01-03T21:15:46.905Z,66.80
2018-01-03T21:18:15.720Z,66.70
2018-01-03T21:20:43.477Z,66.50
2018-01-03T21:23:11.237Z,65.80
2018-01-03T21:25:38.943Z,66.50
2018-01-03T21:28:28.163Z,67.70
2018-01-03T21:30:56.627Z,67.80
2018-01-03T21:33:25.863Z,67.90
2018-01-03T21:35:55.841Z,68.70
2018-01-03T21:38:25.409Z,69.30
2018-01-03T21:40:53.022Z,69.40
2018-01-03T21:43:20.690Z,69.80
2018-01-03T21:45:48.408Z,69.00
2018-01-03T21:48:17.053Z,68.80
2018-01-03T21:50:46.682Z,68.90
2018-01-03T21:53:14.305Z,69.30
2018-01-03T21:55:43.275Z,69.00
2018-01-03T21:58:10.872Z,69.60
2018-01-03T22:00:40.606Z,69.40
2018-01-03T22:03:08.451Z,69.50
2018-01-03T22:05:40.757Z,70.00
2018-01-03T22:08:09.669Z,70.30
2018-01-03T22:10:38.734Z,70.90
2018-01-03T22:13:07.606Z,70.60
2018-01-03T22:15:36.946Z,70.60
2018-01-03T22:18:19.140Z,71.00
2018-01-03T22:20:46.787Z,71.20
2018-01-03T22:23:15.630Z,71.50
2018-01-03T22:25:44.138Z,71.70
2018-01-03T22:28:14.762Z,71.70
2018-01-03T22:33:35.623Z,71.60
2018-01-03T22:36:03.386Z,71.70
2018-01-03T22:38:31.714Z,72.20
2018-01-03T22:40:59.241Z,71.50
2018-01-03T22:43:26.795Z,71.50
2018-01-03T22:45:54.417Z,71.50
2018-01-03T22:48:29.750Z,71.30
2018-01-03T22:50:57.532Z,71.50
2018-01-03T22:53:25.233Z,71.60
2018-01-03T22:55:52.882Z,71.70
2018-01-03T22:58:20.644Z,72.20
2018-01-03T23:00:49.914Z,72.20
2018-01-03T23:03:19.444Z,72.00
2018-01-03T23:05:48.239Z,72.20
2018-01-03T23:08:15.901Z,72.20
2018-01-03T23:10:44.457Z,72.50
2018-01-03T23:13:12.245Z,72.40
2018-01-03T23:15:41.719Z,72.60
2018-01-03T23:18:09.334Z,72.50
2018-01-03T23:20:38.341Z,72.70
2018-01-03T23:23:05.934Z,72.70
2018-01-03T23:25:33.571Z,72.80
2018-01-03T23:28:01.261Z,73.20
2018-01-03T23:30:29.120Z,73.20
2018-01-03T23:32:56.825Z,73.30
2018-01-03T23:35:24.387Z,73.40
2018-01-03T23:37:51.932Z,73.40
2018-01-03T23:40:26.906Z,73.40
2018-01-03T23:42:54.424Z,73.50
2018-01-03T23:45:35.549Z,73.60
2018-01-03T23:48:04.000Z,73.20
2018-01-03T23:50:34.274Z,72.90
2018-01-03T23:53:02.550Z,72.40
2018-01-03T23:55:30.846Z,72.70
2018-01-03T23:57:58.396Z,72.70
